createdAt,value
2018-10-19T00:00:36.274Z,95.30
2018-10-19T00:03:40.503Z,96.00
2018-10-19T00:06:44.714Z,95.30
2018-10-19T00:09:49.418Z,95.10
2018-10-19T00:12:53.634Z,94.80
2018-10-19T00:15:57.995Z,94.80
2018-10-19T00:19:02.225Z,94.80
2018-10-19T00:22:06.923Z,95.10
2018-10-19T00:25:11.149Z,95.20
2018-10-19T00:28:15.437Z,95.10
2018-10-19T00:31:19.658Z,95.10
2018-10-19T00:34:23.897Z,94.90
2018-10-19T00:37:28.174Z,94.70
2018-10-19T00:40:32.602Z,95.00
2018-10-19T00:43:36.798Z,95.50
2018-10-19T00:46:41.066Z,95.40
2018-10-19T00:49:45.282Z,95.00
2018-10-19T00:52:49.505Z,95.00
2018-10-19T00:55:53.739Z,95.40
2018-10-19T00:58:57.993Z,94.90
2018-10-19T01:02:02.270Z,95.30
2018-10-19T01:05:07.069Z,95.10
2018-10-19T01:08:11.411Z,95.60
2018-10-19T01:11:16.050Z,95.80
2018-10-19T01:14:20.206Z,95.30
2018-10-19T01:17:24.680Z,95.30
2018-10-19T01:20:28.976Z,95.20
2018-10-19T01:23:33.581Z,95.70
2018-10-19T01:26:37.894Z,94.80
2018-10-19T01:29:42.116Z,94.70
2018-10-19T01:32:46.762Z,94.80
2018-10-19T01:35:51.016Z,94.50
2018-10-19T01:38:55.267Z,94.70
2018-10-19T01:41:59.381Z,94.80
2018-10-19T01:45:03.600Z,95.20
2018-10-19T01:48:07.733Z,95.30
2018-10-19T01:51:12.007Z,95.60
2018-10-19T01:54:16.129Z,95.30
2018-10-19T01:57:23.583Z,95.00
2018-10-19T02:00:27.805Z,94.90
2018-10-19T02:03:32.050Z,95.30
2018-10-19T02:06:36.334Z,95.20
2018-10-19T02:09:40.691Z,95.20
2018-10-19T02:12:44.878Z,95.10
2018-10-19T02:15:49.156Z,95.10
2018-10-19T02:18:53.631Z,95.10
2018-10-19T02:21:57.850Z,95.00
2018-10-19T02:25:02.076Z,94.90
2018-10-19T02:28:06.360Z,95.00
2018-10-19T02:31:10.851Z,94.90
2018-10-19T02:34:15.102Z,95.40
2018-10-19T02:37:19.301Z,95.50
2018-10-19T02:40:23.946Z,95.60
2018-10-19T02:43:28.630Z,95.20
2018-10-19T02:46:32.826Z,95.20
2018-10-19T02:49:37.047Z,95.40
2018-10-19T02:52:41.233Z,95.40
2018-10-19T02:55:45.470Z,95.50
2018-10-19T02:58:49.639Z,95.80
2018-10-19T03:01:53.838Z,95.60
2018-10-19T03:04:58.182Z,95.30
2018-10-19T03:08:02.683Z,95.50
2018-10-19T03:11:07.300Z,95.50
2018-10-19T03:14:11.455Z,95.30
2018-10-19T03:17:15.817Z,95.50
2018-10-19T03:20:20.239Z,95.60
2018-10-19T03:23:24.597Z,95.60
2018-10-19T03:26:28.977Z,95.90
2018-10-19T03:29:33.152Z,95.60
2018-10-19T03:32:37.326Z,95.90
2018-10-19T03:35:41.553Z,95.70
2018-10-19T03:38:45.739Z,95.50
2018-10-19T03:41:49.931Z,95.70
2018-10-19T03:44:54.183Z,95.70
2018-10-19T03:47:59.054Z,95.60
2018-10-19T03:51:03.288Z,95.60
2018-10-19T03:54:07.540Z,95.70
2018-10-19T03:57:11.789Z,95.70
2018-10-19T04:00:15.941Z,95.70
2018-10-19T04:03:20.155Z,95.90
2018-10-19T04:06:24.357Z,96.00
2018-10-19T04:09:28.795Z,95.40
2018-10-19T04:12:32.979Z,95.80
2018-10-19T04:15:37.184Z,95.50
2018-10-19T04:18:41.340Z,96.10
2018-10-19T04:21:45.519Z,95.80
2018-10-19T04:24:49.707Z,95.90
2018-10-19T04:27:53.958Z,96.10
2018-10-19T04:30:58.425Z,96.20
2018-10-19T04:34:02.978Z,95.80
2018-10-19T04:37:07.652Z,95.60
2018-10-19T04:40:18.503Z,95.40
2018-10-19T04:43:23.016Z,95.70
2018-10-19T04:46:27.589Z,95.90
2018-10-19T04:49:32.121Z,96.20
2018-10-19T04:52:36.427Z,96.60
2018-10-19T04:55:40.597Z,96.40
2018-10-19T04:58:44.789Z,96.40
2018-10-19T05:01:48.998Z,96.20
2018-10-19T05:04:53.402Z,95.70
2018-10-19T05:07:57.609Z,95.60
2018-10-19T05:11:01.749Z,95.90
2018-10-19T05:14:06.405Z,96.20
2018-10-19T05:17:12.371Z,96.30
2018-10-19T05:20:18.173Z,96.50
2018-10-19T05:23:22.259Z,96.90
2018-10-19T05:26:26.749Z,97.40
2018-10-19T05:29:30.901Z,97.40
2018-10-19T05:32:35.111Z,97.20
2018-10-19T05:35:39.295Z,97.10
2018-10-19T05:38:43.451Z,98.00
2018-10-19T05:41:47.586Z,98.20
2018-10-19T05:44:51.728Z,98.70
2018-10-19T05:47:55.908Z,98.90
2018-10-19T05:51:00.075Z,98.70
2018-10-19T05:54:04.538Z,98.90
2018-10-19T05:57:08.710Z,98.70
2018-10-19T06:00:13.597Z,98.70
2018-10-19T06:03:17.859Z,98.60
2018-10-19T06:06:22.032Z,98.50
2018-10-19T06:09:26.255Z,98.80
2018-10-19T06:12:30.608Z,98.50
2018-10-19T06:15:34.762Z,98.80
2018-10-19T06:18:38.906Z,98.60
2018-10-19T06:21:43.334Z,98.70
2018-10-19T06:24:47.519Z,98.30
2018-10-19T06:27:51.677Z,98.20
2018-10-19T06:30:55.857Z,98.10
2018-10-19T06:34:00.256Z,97.90
2018-10-19T06:37:04.518Z,97.70
2018-10-19T06:40:08.678Z,97.80
2018-10-19T06:43:13.668Z,98.00
2018-10-19T06:46:17.817Z,98.30
2018-10-19T06:49:22.018Z,98.50
2018-10-19T06:52:26.155Z,98.80
2018-10-19T06:55:30.304Z,99.10
2018-10-19T06:58:34.443Z,98.90
2018-10-19T07:01:38.641Z,98.70
2018-10-19T07:04:42.844Z,98.60
2018-10-19T07:07:47.017Z,98.40
2018-10-19T07:10:51.117Z,98.20
2018-10-19T07:13:55.272Z,98.20
2018-10-19T07:16:59.444Z,98.50
2018-10-19T07:20:03.703Z,98.30
2018-10-19T07:23:07.841Z,98.20
2018-10-19T07:26:12.011Z,98.10
2018-10-19T07:29:16.220Z,98.10
2018-10-19T07:32:20.290Z,98.10
2018-10-19T07:35:24.462Z,98.20
2018-10-19T07:38:28.624Z,98.40
2018-10-19T07:41:32.772Z,98.40
2018-10-19T07:44:36.906Z,98.30
2018-10-19T07:47:41.135Z,98.30
2018-10-19T07:50:45.243Z,98.10
2018-10-19T07:53:49.414Z,97.80
2018-10-19T07:56:53.578Z,97.80
2018-10-19T07:59:57.732Z,97.60
2018-10-19T08:03:01.887Z,97.20
2018-10-19T08:06:06.018Z,97.10
2018-10-19T08:09:11.254Z,97.10
2018-10-19T08:12:15.459Z,97.00
2018-10-19T08:15:19.595Z,96.80
2018-10-19T08:18:23.884Z,96.70
2018-10-19T08:21:28.367Z,96.60
2018-10-19T08:24:36.021Z,96.30
2018-10-19T08:27:41.589Z,96.30
2018-10-19T08:30:45.738Z,95.90
2018-10-19T08:33:49.886Z,95.70
2018-10-19T08:36:54.072Z,95.80
2018-10-19T08:39:58.215Z,95.60
2018-10-19T08:43:02.470Z,95.60
2018-10-19T08:46:12.054Z,95.50
2018-10-19T08:49:16.208Z,95.60
2018-10-19T08:52:20.336Z,95.60
2018-10-19T08:55:24.619Z,95.30
2018-10-19T08:58:28.767Z,95.10
2018-10-19T09:01:32.931Z,95.00
2018-10-19T09:04:37.163Z,95.00
2018-10-19T09:07:41.314Z,95.00
2018-10-19T09:10:45.508Z,95.10
2018-10-19T09:13:49.593Z,95.30
2018-10-19T09:16:53.855Z,94.90
2018-10-19T09:19:57.963Z,94.40
2018-10-19T09:23:02.182Z,94.00
2018-10-19T09:26:06.299Z,93.40
2018-10-19T09:29:10.481Z,92.80
2018-10-19T09:32:14.649Z,92.30
2018-10-19T09:35:18.944Z,91.80
2018-10-19T09:38:22.932Z,91.60
2018-10-19T09:41:27.246Z,91.20
2018-10-19T09:44:31.328Z,91.20
2018-10-19T09:47:35.517Z,90.70
2018-10-19T09:50:39.622Z,89.60
2018-10-19T09:53:43.761Z,88.90
2018-10-19T09:56:47.901Z,87.90
2018-10-19T09:59:52.074Z,88.10
2018-10-19T10:02:56.227Z,86.70
2018-10-19T10:06:00.363Z,87.80
2018-10-19T10:09:07.727Z,88.20
2018-10-19T10:12:11.895Z,86.90
2018-10-19T10:15:16.182Z,86.00
2018-10-19T10:18:20.187Z,86.50
2018-10-19T10:21:24.327Z,85.80
2018-10-19T10:24:28.479Z,84.60
2018-10-19T10:27:32.709Z,83.90
2018-10-19T10:30:36.847Z,83.30
2018-10-19T10:33:41.103Z,83.60
2018-10-19T10:36:45.234Z,83.00
2018-10-19T10:39:49.399Z,82.20
2018-10-19T10:42:53.599Z,82.00
2018-10-19T10:45:57.761Z,82.40
2018-10-19T10:49:01.948Z,82.70
2018-10-19T10:52:06.721Z,82.70
2018-10-19T10:55:10.929Z,82.80
2018-10-19T10:58:15.088Z,83.30
2018-10-19T11:01:19.215Z,83.40
2018-10-19T11:04:23.344Z,81.20
2018-10-19T11:07:27.677Z,81.50
2018-10-19T11:10:31.663Z,81.30
2018-10-19T11:13:35.820Z,80.20
2018-10-19T11:16:39.956Z,82.00
2018-10-19T11:19:44.100Z,82.00
2018-10-19T11:22:48.255Z,81.10
2018-10-19T11:25:52.407Z,81.80
2018-10-19T11:28:56.554Z,82.70
2018-10-19T11:32:00.703Z,83.10
2018-10-19T11:35:05.177Z,82.00
2018-10-19T11:38:09.360Z,81.60
2018-10-19T11:41:13.534Z,81.80
2018-10-19T11:44:17.687Z,80.50
2018-10-19T11:47:21.827Z,80.20
2018-10-19T11:50:25.974Z,80.40
2018-10-19T11:53:30.214Z,79.80
2018-10-19T11:56:34.363Z,80.40
2018-10-19T11:59:38.511Z,79.30
2018-10-19T12:02:42.668Z,78.80
2018-10-19T12:05:46.803Z,79.10
2018-10-19T12:08:50.965Z,79.40
2018-10-19T12:11:55.119Z,79.10
2018-10-19T12:14:59.327Z,76.70
2018-10-19T12:18:03.463Z,76.30
2018-10-19T12:21:07.959Z,76.30
2018-10-19T12:24:12.140Z,75.40
2018-10-19T12:27:16.332Z,76.80
2018-10-19T12:30:20.427Z,76.60
2018-10-19T12:33:24.572Z,74.90
2018-10-19T12:36:28.867Z,73.80
2018-10-19T12:39:33.014Z,76.00
2018-10-19T12:42:37.581Z,75.30
2018-10-19T12:46:57.986Z,74.30
2018-10-19T12:50:02.161Z,75.10
2018-10-19T12:53:06.387Z,74.70
2018-10-19T12:56:10.650Z,73.90
2018-10-19T12:59:14.894Z,73.40
2018-10-19T13:02:19.051Z,73.20
2018-10-19T13:05:23.206Z,73.60
2018-10-19T13:08:27.447Z,72.20
2018-10-19T13:11:31.582Z,68.30
2018-10-19T13:14:35.785Z,68.20
2018-10-19T13:17:39.942Z,68.30
2018-10-19T13:20:44.112Z,67.00
2018-10-19T13:23:48.333Z,66.80
2018-10-19T13:26:52.522Z,65.70
2018-10-19T13:29:56.708Z,67.30
2018-10-19T13:33:01.351Z,69.30
2018-10-19T13:36:05.852Z,70.30
2018-10-19T13:39:12.012Z,71.90
2018-10-19T13:42:16.098Z,71.80
2018-10-19T13:45:20.279Z,71.90
2018-10-19T13:48:24.699Z,72.50
2018-10-19T13:51:28.862Z,71.50
2018-10-19T13:54:33.018Z,72.70
2018-10-19T13:57:37.171Z,73.40
2018-10-19T14:00:41.415Z,73.20
2018-10-19T14:03:45.543Z,73.50
2018-10-19T14:06:49.705Z,75.40
2018-10-19T14:09:53.953Z,75.10
2018-10-19T14:12:58.142Z,76.40
2018-10-19T14:16:02.293Z,76.20
2018-10-19T14:19:06.439Z,76.80
2018-10-19T14:22:10.634Z,75.90
2018-10-19T14:25:15.021Z,76.50
2018-10-19T14:28:19.267Z,76.10
2018-10-19T14:31:23.508Z,77.30
2018-10-19T14:34:27.658Z,77.20
2018-10-19T14:37:32.007Z,77.40
2018-10-19T14:40:36.164Z,78.10
2018-10-19T14:43:40.302Z,78.20
2018-10-19T14:46:44.722Z,78.30
2018-10-19T14:49:49.001Z,77.60
2018-10-19T14:52:53.170Z,79.00
2018-10-19T14:55:57.342Z,79.50
2018-10-19T14:59:01.567Z,80.10
2018-10-19T15:02:05.792Z,81.00
2018-10-19T15:05:11.914Z,80.90
2018-10-19T15:08:15.997Z,80.20
2018-10-19T15:11:20.337Z,81.90
2018-10-19T15:14:24.332Z,82.50
2018-10-19T15:17:28.550Z,82.20
2018-10-19T15:20:32.707Z,83.70
2018-10-19T15:23:36.858Z,83.60
2018-10-19T15:26:41.324Z,83.60
2018-10-19T15:29:45.622Z,84.40
2018-10-19T15:32:49.651Z,84.60
2018-10-19T15:35:53.819Z,85.40
2018-10-19T15:38:58.092Z,85.80
2018-10-19T15:42:02.255Z,86.10
2018-10-19T15:45:09.956Z,86.70
2018-10-19T15:48:14.113Z,87.30
2018-10-19T15:51:18.247Z,88.30
2018-10-19T15:54:22.527Z,88.80
2018-10-19T15:57:26.739Z,89.30
2018-10-19T16:00:30.954Z,89.90
2018-10-19T16:03:35.040Z,90.10
2018-10-19T16:06:39.287Z,90.40
2018-10-19T16:09:43.494Z,90.40
2018-10-19T16:12:47.638Z,90.60
2018-10-19T16:15:51.811Z,90.70
2018-10-19T16:18:56.068Z,91.00
2018-10-19T16:22:00.224Z,91.10
2018-10-19T16:25:05.018Z,91.20
2018-10-19T16:28:09.175Z,91.30
2018-10-19T16:31:13.339Z,91.60
2018-10-19T16:34:17.573Z,91.50
2018-10-19T16:37:21.728Z,91.70
2018-10-19T16:40:25.897Z,91.80
2018-10-19T16:43:30.055Z,92.00
2018-10-19T16:46:34.214Z,92.10
2018-10-19T16:49:38.365Z,92.20
2018-10-19T16:52:42.743Z,92.30
2018-10-19T16:55:46.750Z,92.60
2018-10-19T16:58:50.920Z,92.60
2018-10-19T17:01:55.094Z,92.60
2018-10-19T17:04:59.262Z,92.80
2018-10-19T17:08:03.468Z,93.00
2018-10-19T17:11:07.652Z,93.40
2018-10-19T17:14:12.104Z,93.70
2018-10-19T17:17:16.267Z,93.30
2018-10-19T17:20:20.451Z,93.30
2018-10-19T17:23:24.749Z,93.40
2018-10-19T17:26:28.971Z,93.60
2018-10-19T17:29:33.315Z,93.50
2018-10-19T17:32:38.400Z,93.50
2018-10-19T17:35:42.620Z,93.50
2018-10-19T17:38:46.771Z,93.70
2018-10-19T17:41:50.997Z,93.90
2018-10-19T17:44:55.233Z,94.00
2018-10-19T17:47:59.445Z,94.10
2018-10-19T17:51:03.960Z,94.10
2018-10-19T17:54:08.166Z,93.90
2018-10-19T17:57:12.235Z,94.20
2018-10-19T18:00:16.374Z,93.80
2018-10-19T18:03:20.531Z,94.10
2018-10-19T18:06:24.729Z,94.10
2018-10-19T18:09:28.943Z,94.10
2018-10-19T18:12:33.049Z,94.10
2018-10-19T18:15:37.232Z,94.00
2018-10-19T18:18:41.310Z,94.10
2018-10-19T18:21:45.479Z,94.50
2018-10-19T18:24:49.650Z,94.20
2018-10-19T18:27:53.830Z,94.20
2018-10-19T18:30:57.993Z,94.20
2018-10-19T18:34:02.126Z,94.60
2018-10-19T18:37:07.816Z,94.40
2018-10-19T18:40:12.811Z,94.50
2018-10-19T18:43:16.975Z,94.50
2018-10-19T18:46:21.215Z,94.60
2018-10-19T18:49:25.436Z,94.70
2018-10-19T18:52:29.666Z,95.00
2018-10-19T18:55:33.876Z,94.90
2018-10-19T18:58:38.103Z,95.10
2018-10-19T19:01:42.252Z,95.00
2018-10-19T19:04:46.460Z,95.10
2018-10-19T19:07:50.637Z,95.10
2018-10-19T19:10:54.806Z,95.00
2018-10-19T19:13:59.043Z,94.90
2018-10-19T19:17:03.177Z,95.20
2018-10-19T19:20:13.712Z,95.10
2018-10-19T19:23:17.856Z,95.20
2018-10-19T19:26:23.410Z,95.10
2018-10-19T19:29:27.566Z,95.20
2018-10-19T19:32:31.803Z,95.30
2018-10-19T19:35:36.745Z,95.00
2018-10-19T19:38:40.962Z,95.20
2018-10-19T19:41:50.531Z,95.20
2018-10-19T19:44:55.620Z,95.30
2018-10-19T19:48:05.164Z,95.50
2018-10-19T19:51:09.418Z,95.50
2018-10-19T19:54:13.605Z,95.50
2018-10-19T19:57:17.730Z,95.60
2018-10-19T20:00:21.895Z,95.60
2018-10-19T20:03:26.036Z,95.60
2018-10-19T20:06:30.180Z,95.50
2018-10-19T20:09:34.330Z,95.70
2018-10-19T20:12:38.923Z,95.50
2018-10-19T20:15:43.139Z,95.70
2018-10-19T20:18:47.295Z,95.80
2018-10-19T20:21:51.572Z,95.70
2018-10-19T20:24:55.774Z,95.60
2018-10-19T20:27:59.992Z,95.80
2018-10-19T20:31:04.146Z,95.50
2018-10-19T20:34:08.320Z,95.60
2018-10-19T20:37:12.533Z,95.40
2018-10-19T20:40:16.797Z,95.60
2018-10-19T20:43:20.909Z,95.90
2018-10-19T20:46:25.124Z,95.70
2018-10-19T20:49:29.295Z,95.50
2018-10-19T20:52:33.454Z,95.80
2018-10-19T20:55:37.614Z,95.80
2018-10-19T20:58:41.764Z,95.90
2018-10-19T21:01:46.023Z,95.90
2018-10-19T21:04:50.256Z,95.80
2018-10-19T21:07:54.390Z,96.00
2018-10-19T21:10:58.564Z,96.20
2018-10-19T21:14:02.710Z,96.30
2018-10-19T21:17:06.950Z,95.90
2018-10-19T21:20:12.172Z,95.90
2018-10-19T21:23:16.270Z,95.90
2018-10-19T21:26:20.569Z,95.90
2018-10-19T21:29:24.784Z,95.90
2018-10-19T21:32:28.936Z,95.90
2018-10-19T21:35:33.090Z,96.00
2018-10-19T21:38:37.228Z,96.20
2018-10-19T21:41:41.385Z,96.20
2018-10-19T21:44:45.507Z,96.10
2018-10-19T21:47:49.663Z,96.20
2018-10-19T21:50:54.957Z,95.90
2018-10-19T21:53:59.693Z,96.10
2018-10-19T21:57:03.860Z,96.10
2018-10-19T22:00:09.600Z,96.30
2018-10-19T22:03:13.776Z,96.20
2018-10-19T22:06:18.250Z,95.70
2018-10-19T22:09:22.403Z,95.90
2018-10-19T22:12:26.590Z,96.20
2018-10-19T22:15:30.806Z,96.00
2018-10-19T22:18:34.990Z,96.40
2018-10-19T22:21:39.744Z,96.00
2018-10-19T22:24:43.927Z,96.10
2018-10-19T22:27:48.081Z,96.00
2018-10-19T22:30:52.230Z,96.00
2018-10-19T22:33:56.416Z,96.00
2018-10-19T22:37:00.652Z,96.20
2018-10-19T22:40:05.355Z,96.10
2018-10-19T22:43:09.542Z,95.90
2018-10-19T22:46:13.694Z,95.90
2018-10-19T22:49:17.955Z,96.30
2018-10-19T22:52:22.114Z,96.40
2018-10-19T22:55:26.271Z,96.40
2018-10-19T22:58:30.426Z,96.10
2018-10-19T23:01:34.599Z,96.20
2018-10-19T23:04:38.849Z,96.20
2018-10-19T23:07:43.046Z,96.50
2018-10-19T23:10:47.339Z,96.10
2018-10-19T23:13:51.618Z,96.30
2018-10-19T23:16:55.805Z,96.40
2018-10-19T23:19:59.938Z,96.30
2018-10-19T23:23:04.151Z,96.50
2018-10-19T23:26:08.286Z,96.40
2018-10-19T23:29:12.577Z,96.60
2018-10-19T23:32:16.663Z,96.30
2018-10-19T23:35:20.877Z,96.40
2018-10-19T23:38:25.093Z,96.50
2018-10-19T23:41:29.568Z,96.20
2018-10-19T23:44:33.793Z,96.30
2018-10-19T23:47:38.054Z,96.30
2018-10-19T23:50:42.242Z,96.30
2018-10-19T23:53:46.391Z,95.90
2018-10-19T23:56:50.629Z,96.20
2018-10-19T23:59:54.778Z,96.20
